Terminal Aerodrome Forecast
Issued by NWS Omaha/Valley, NE

Home | Current Version | Previous Version | Text Only | Print | Product List | Glossary On
Versions: 1 2 3 4 5 6 7 8 9 10 11 12 13 14 15 16 17 18 19 20 21 22 23 24 25 26 27 28 29 30 31 32 33 34
604
FTUS43 KOAX 230527
TAFLNK
TAF
KLNK 230527Z 2306/2406 02009KT P6SM SKC
     FM231100 04009KT P6SM BKN070
     FM231800 07015G23KT P6SM BKN050
     FM232300 07013KT 4SM -RA OVC015
      TEMPO 2402/2406 3SM -TSRA OVC007CB=

USA.gov is the U.S. government's official web portal to all federal, state and local government web resources and services.